Tete, Mozambique

12:44 PM CAT on July 31, 2014 (GMT +0200)
Chingozi (FQTT) Elev 525 ft | 16.10 °S, 33.64 °E | Change Station

Current weather conditions updated 1 hour ago

Scattered Clouds
Scattered Clouds
73 °F
Feels Like 73 °F
N
6
Wind Variable Wind from SSE

Today is forecast to be Warmer than yesterday.

Today
High -- | Low -- °F
--% Chance of Precip.
Yesterday
High -- | Low -- °F
Precip. -- in
6:10 AM 5:33 PM
Waxing Crescent, 17% visible
Pressure 30.27 in
Visibility 6.2 miles
Clouds Scattered Clouds 2000 ft
Dew Point 59 °F
Humidity 61%
Rainfall 0.00 in
Snow Depth Not available.
UV 8 out of 12
Pollen Not available.
Air Quality Not available.
Flu Activity Not available.
METAR FQTT 310900Z 16005KT 9999 SCT020 23/15 Q1025

More Conditions Fewer Conditions

Pressure 30.27 in
Visibility 6.2 miles
Clouds Scattered Clouds 2000 ft
Dew Point 59 °F
Humidity 61%
Rainfall 0.00 in
Snow Depth Not available.
UV 8 out of 12
Pollen Not available.
Air Quality Not available.
Flu Activity Not available.
METAR FQTT 310900Z 16005KT 9999 SCT020 23/15 Q1025

More Conditions Fewer Conditions

10-Day Weather Forecast

Almanac

Astronomy

Jul. 31, 2014 Rise Set
Actual Time 6:10 AM CAT 5:33 PM CAT
Civil Twilight 5:47 AM CAT 5:56 PM CAT
Nautical Twilight 5:21 AM CAT 6:22 PM CAT
Astronomical Twilight 4:55 AM CAT 6:48 PM CAT
Moon 8:49 AM CAT 9:13 PM CAT
Length of Visible Light 12h 08m
Length of Day
11h 23m
Tomorrow will be 0m 39s longer.
Waxing Crescent, 17% of the Moon is Illuminated
Today
Waxing Crescent
Aug 3
First Quarter
Aug 10
Full
Aug 17
Last Quarter
Aug 25
New

Yesterday's Extremes

Country Highs Country Lows

Community

WunderPhotos

Upload Photos

1,739,289 photos uploaded!

Nearby

Snow Depth

Not available.

Earthquake Activity

City Distance Mag. Time & Date
No recent earthquake activity has been reported nearby.
Minimum magnitude displayed is 2.5.

Coastal Water Temperatures

Place Temperature
No Stations Reporting

Nearby Weather Stations

There are no personal weather stations in this area.